Time;durP1;ratioP1;P1;durP2;ratioP2;P2;SDS_P1;SDS_P2;PMS_P1;PMS_P2;Temp;Humidity;BMP_temperature;BMP_pressure;BME280_temperature;BME280_humidity;BME280_pressure;Samples;Min_cycle;Max_cycle;Signal;HPM_P1;HPM_P2
2021/12/19 00:01:49;;;;;;;44.50;26.00;;;;;;;-0.36;100.00;97776.25;5009428;28;101795;-59
2021/12/19 00:04:19;;;;;;;43.77;26.83;;;;;;;-0.37;100.00;97773.81;5012473;28;103535;-60
2021/12/19 00:09:30;;;;;;;40.23;24.27;;;;;;;-0.24;100.00;97757.75;5009318;28;105249;-60
2021/12/19 00:11:59;;;;;;;46.70;26.57;;;;;;;-0.13;100.00;97758.31;5008366;28;106755;-60
2021/12/19 00:14:26;;;;;;;44.53;26.77;;;;;;;-0.13;100.00;97755.72;5009288;28;101890;-60
2021/12/19 00:16:54;;;;;;;48.10;27.13;;;;;;;-0.37;100.00;97758.13;5009173;28;105098;-60
2021/12/19 00:19:22;;;;;;;49.30;27.07;;;;;;;-0.37;100.00;97750.28;5008720;28;105209;-60
2021/12/19 00:21:48;;;;;;;43.93;25.93;;;;;;;-0.42;100.00;97755.13;5009001;28;101927;-60
2021/12/19 00:24:16;;;;;;;46.70;25.87;;;;;;;-0.46;100.00;97753.78;5008838;28;105211;-59
2021/12/19 00:26:43;;;;;;;48.73;25.90;;;;;;;-0.56;100.00;97750.41;5011399;28;105631;-60
2021/12/19 00:29:12;;;;;;;47.87;26.07;;;;;;;-0.57;100.00;97755.78;5008738;28;105588;-60
2021/12/19 00:31:39;;;;;;;49.77;26.77;;;;;;;-0.57;100.00;97750.56;5007998;28;105969;-60
2021/12/19 00:34:06;;;;;;;46.60;26.57;;;;;;;-0.61;100.00;97750.03;5008641;28;101833;-60
2021/12/19 00:36:33;;;;;;;49.30;27.00;;;;;;;-0.61;100.00;97755.25;5010411;28;102441;-60
2021/12/19 00:39:01;;;;;;;46.50;26.63;;;;;;;-0.58;100.00;97752.38;5008268;28;105431;-60
2021/12/19 00:41:28;;;;;;;49.77;27.37;;;;;;;-0.61;100.00;97757.88;5008663;28;102268;-60
2021/12/19 00:44:06;;;;;;;54.47;27.27;;;;;;;-0.63;100.00;97772.88;5008717;28;104341;-60
2021/12/19 00:46:43;;;;;;;50.00;26.57;;;;;;;-0.58;100.00;97775.88;5011460;28;105078;-60
2021/12/19 00:49:11;;;;;;;50.80;26.20;;;;;;;-0.60;100.00;97767.34;5010358;28;102763;-60
2021/12/19 00:51:39;;;;;;;48.73;26.33;;;;;;;-0.58;100.00;97761.97;5008075;28;105570;-60
2021/12/19 00:54:09;;;;;;;44.63;25.43;;;;;;;-0.61;100.00;97762.28;5008465;28;101926;-60
2021/12/19 00:56:37;;;;;;;48.77;25.93;;;;;;;-0.64;100.00;97760.81;5008434;28;104875;-60
2021/12/19 00:59:04;;;;;;;46.37;25.23;;;;;;;-0.58;100.00;97775.88;4991244;28;105078;-60
2021/12/19 01:01:32;;;;;;;46.07;25.40;;;;;;;-0.63;100.00;97767.66;5008478;28;101944;-59
2021/12/19 01:04:01;;;;;;;46.23;23.57;;;;;;;-0.55;100.00;97770.34;5008234;28;105334;-60
2021/12/19 01:06:29;;;;;;;43.17;23.43;;;;;;;-0.54;100.00;97769.41;5007921;28;105084;-60
2021/12/19 01:08:56;;;;;;;43.27;23.90;;;;;;;-0.58;100.00;97770.66;5011906;28;101835;-60
2021/12/19 01:11:23;;;;;;;39.70;22.33;;;;;;;-0.65;100.00;97760.94;5007814;28;105060;-60
2021/12/19 01:13:50;;;;;;;38.40;22.50;;;;;;;-0.70;100.00;97758.78;5007958;28;102021;-60
2021/12/19 01:16:18;;;;;;;38.77;23.20;;;;;;;-0.67;100.00;97748.03;5009569;28;102931;-60
2021/12/19 01:18:46;;;;;;;35.70;21.43;;;;;;;-0.70;100.00;97753.56;5007824;28;105431;-60
2021/12/19 01:21:15;;;;;;;34.73;20.93;;;;;;;-0.73;100.00;97760.88;5008205;28;101960;-60
2021/12/19 01:23:43;;;;;;;33.27;20.17;;;;;;;-0.80;100.00;97776.28;5009226;28;102606;-60
2021/12/19 01:26:10;;;;;;;38.00;20.87;;;;;;;-0.80;100.00;97776.28;5007074;28;105624;-60
2021/12/19 01:28:36;;;;;;;33.57;19.93;;;;;;;-0.84;100.00;97781.94;5008293;28;102055;-60
2021/12/19 01:31:04;;;;;;;36.93;21.50;;;;;;;-0.86;100.00;97784.72;5010825;28;105380;-60
2021/12/19 01:33:31;;;;;;;38.70;21.77;;;;;;;-0.88;100.00;97785.81;5007831;28;101882;-59
2021/12/19 01:35:58;;;;;;;34.50;20.93;;;;;;;-0.99;100.00;97792.03;5009573;28;102392;-60
2021/12/19 01:38:27;;;;;;;34.30;19.90;;;;;;;-1.01;100.00;97790.53;5008548;28;103202;-60
2021/12/19 01:40:54;;;;;;;38.53;20.67;;;;;;;-1.03;100.00;97785.50;5007130;28;101983;-60
2021/12/19 01:43:24;;;;;;;36.70;21.60;;;;;;;-1.08;100.00;97784.28;5007957;28;104026;-60
2021/12/19 01:45:52;;;;;;;39.40;21.27;;;;;;;-0.94;100.00;97774.16;5006975;28;104988;-60
2021/12/19 01:48:21;;;;;;;40.27;21.93;;;;;;;-1.04;100.00;97777.81;5009314;28;101668;-60
2021/12/19 01:50:49;;;;;;;40.90;22.17;;;;;;;-1.01;100.00;97773.09;5007913;28;105914;-60
2021/12/19 01:53:16;;;;;;;40.57;22.40;;;;;;;-0.91;100.00;97760.00;5010654;28;105980;-60
2021/12/19 01:55:47;;;;;;;38.07;22.37;;;;;;;-0.91;100.00;97763.44;5007553;28;105188;-60
2021/12/19 01:58:14;;;;;;;39.97;22.73;;;;;;;-0.90;100.00;97765.06;5007344;28;105111;-60
2021/12/19 02:00:44;;;;;;;39.63;22.50;;;;;;;-0.86;100.00;97761.22;5007397;28;101898;-60
2021/12/19 02:03:12;;;;;;;38.67;21.73;;;;;;;-0.76;100.00;97761.16;5007647;28;105027;-60
2021/12/19 02:05:40;;;;;;;38.50;21.97;;;;;;;-0.77;100.00;97756.91;5007084;28;104149;-60
2021/12/19 02:08:08;;;;;;;36.07;20.53;;;;;;;-0.73;100.00;97748.63;5007224;28;101848;-60
2021/12/19 02:10:36;;;;;;;40.70;22.07;;;;;;;-0.74;100.00;97748.75;5007409;28;104109;-60
2021/12/19 02:13:07;;;;;;;34.60;20.83;;;;;;;-0.61;100.00;97746.63;5006923;28;106280;-60
2021/12/19 02:15:36;;;;;;;33.53;20.50;;;;;;;-0.76;100.00;97735.88;5010937;28;101730;-60
2021/12/19 02:18:06;;;;;;;34.93;19.00;;;;;;;-0.90;100.00;97746.81;5007077;28;105564;-60
2021/12/19 02:20:36;;;;;;;27.83;17.17;;;;;;;-0.92;100.00;97750.53;5007268;28;101898;-60
2021/12/19 02:23:04;;;;;;;30.13;18.33;;;;;;;-0.95;100.00;97754.25;5008571;28;102468;-59
2021/12/19 02:25:32;;;;;;;27.60;16.10;;;;;;;-0.96;100.00;97757.84;5006543;28;103868;-60
2021/12/19 02:28:00;;;;;;;28.83;16.90;;;;;;;-0.97;100.00;97755.34;5007405;28;101826;-60
2021/12/19 02:30:27;;;;;;;26.87;16.20;;;;;;;-0.96;100.00;97757.00;5006813;28;104160;-60
2021/12/19 02:32:54;;;;;;;29.57;17.10;;;;;;;-0.92;100.00;97745.31;5006648;28;105940;-59
2021/12/19 02:35:25;;;;;;;29.17;17.60;;;;;;;-0.90;100.00;97752.03;5007197;28;101974;-60
2021/12/19 02:48:53;;;;;;;28.00;16.33;;;;;;;-0.88;100.00;97731.00;5007218;28;101786;-60
2021/12/19 02:51:20;;;;;;;25.03;16.10;;;;;;;-0.93;100.00;97739.25;5008561;28;105823;-60
2021/12/19 02:53:48;;;;;;;28.77;16.13;;;;;;;-0.95;100.00;97729.91;5009831;28;105391;-60
2021/12/19 02:56:16;;;;;;;29.20;16.90;;;;;;;-0.98;100.00;97733.66;5010409;28;101984;-60
2021/12/19 02:58:44;;;;;;;26.93;15.83;;;;;;;-0.94;100.00;97742.84;5013540;28;104912;-60
2021/12/19 03:01:15;;;;;;;24.07;15.27;;;;;;;-0.93;100.00;97744.47;5011409;28;101853;-60
2021/12/19 03:03:41;;;;;;;26.23;16.00;;;;;;;-0.89;100.00;97743.22;5010399;28;105255;-59
2021/12/19 03:06:08;;;;;;;26.80;15.30;;;;;;;-0.81;100.00;97732.88;5009463;28;104309;-60
2021/12/19 03:08:40;;;;;;;24.90;14.63;;;;;;;-0.80;100.00;97739.72;5010353;28;101754;-59
2021/12/19 03:19:26;;;;;;;27.97;16.37;;;;;;;-0.79;100.00;97736.16;5011747;28;102469;-60
2021/12/19 03:21:53;;;;;;;24.80;15.40;;;;;;;-0.79;100.00;97737.94;5013026;28;105325;-60
2021/12/19 03:24:20;;;;;;;29.90;16.23;;;;;;;-0.88;100.00;97737.03;5011061;28;102143;-59
2021/12/19 03:26:49;;;;;;;25.43;15.50;;;;;;;-0.88;100.00;97729.19;5009571;28;105014;-60
2021/12/19 03:29:16;;;;;;;26.20;15.77;;;;;;;-0.87;100.00;97723.03;5009996;28;101831;-60
2021/12/19 03:31:43;;;;;;;25.80;15.60;;;;;;;-0.83;100.00;97724.34;5009191;28;105002;-60
2021/12/19 03:34:10;;;;;;;26.27;15.30;;;;;;;-0.85;100.00;97726.28;5009416;28;105681;-59
2021/12/19 03:36:37;;;;;;;25.73;15.30;;;;;;;-0.83;100.00;97721.72;5009787;28;101849;-59
2021/12/19 03:39:13;;;;;;;24.93;15.17;;;;;;;-0.84;100.00;97717.50;5009766;28;105715;-59
2021/12/19 03:41:41;;;;;;;26.47;15.43;;;;;;;-0.74;100.00;97709.59;5009243;28;105111;-60
2021/12/19 03:44:11;;;;;;;25.47;15.27;;;;;;;-0.79;100.00;97704.81;5013275;28;101894;-59
2021/12/19 03:46:38;;;;;;;25.00;15.20;;;;;;;-0.86;100.00;97708.16;5008910;28;103935;-59
2021/12/19 03:49:05;;;;;;;24.47;15.27;;;;;;;-0.87;100.00;97696.06;5010967;28;101763;-59
2021/12/19 03:51:33;;;;;;;24.70;15.10;;;;;;;-0.84;100.00;97707.03;5010965;28;102283;-59
2021/12/19 03:54:00;;;;;;;26.77;15.03;;;;;;;-0.80;100.00;97703.19;5009060;28;105558;-59
2021/12/19 03:56:26;;;;;;;24.90;15.40;;;;;;;-0.75;100.00;97706.16;5010950;28;101792;-60
2021/12/19 03:58:54;;;;;;;26.33;14.53;;;;;;;-0.74;100.00;97699.13;5009527;28;105656;-59
2021/12/19 04:01:23;;;;;;;24.97;14.20;;;;;;;-0.84;100.00;97691.38;5010321;28;101803;-60
2021/12/19 04:03:50;;;;;;;24.03;14.43;;;;;;;-0.87;100.00;97690.84;5008550;28;101997;-59
2021/12/19 04:06:16;;;;;;;27.33;15.57;;;;;;;-1.01;100.00;97679.13;5011993;28;105554;-60
2021/12/19 04:08:43;;;;;;;25.50;14.47;;;;;;;-1.01;100.00;97680.91;5009417;28;101855;-59
2021/12/19 04:11:10;;;;;;;23.43;15.43;;;;;;;-0.91;100.00;97681.66;5009141;28;104010;-59
2021/12/19 04:13:37;;;;;;;24.80;14.87;;;;;;;-1.05;100.00;97680.38;5008885;28;105373;-60
2021/12/19 04:16:04;;;;;;;23.33;15.17;;;;;;;-1.16;100.00;97674.56;5009199;28;101891;-59
2021/12/19 04:18:33;;;;;;;23.53;14.67;;;;;;;-1.19;100.00;97674.84;5009193;28;105666;-60
2021/12/19 04:21:00;;;;;;;21.17;14.23;;;;;;;-1.14;100.00;97670.84;5008753;28;105507;-60
2021/12/19 04:23:30;;;;;;;23.60;14.70;;;;;;;-1.18;100.00;97669.50;5008872;28;101882;-60
2021/12/19 04:25:59;;;;;;;23.40;14.23;;;;;;;-1.31;100.00;97682.03;5009092;28;103527;-60
2021/12/19 04:28:26;;;;;;;22.10;13.67;;;;;;;-1.43;100.00;97672.78;5012131;28;105529;-59
2021/12/19 04:30:53;;;;;;;21.97;13.43;;;;;;;-1.43;100.00;97672.78;5008433;28;105598;-59
2021/12/19 04:33:22;;;;;;;22.60;13.83;;;;;;;-1.36;100.00;97676.47;5008350;28;104416;-59
2021/12/19 04:35:58;;;;;;;23.00;14.17;;;;;;;-1.38;100.00;97674.97;5008714;28;101842;-60
2021/12/19 04:41:41;;;;;;;20.63;13.60;;;;;;;-1.40;100.00;97676.88;4964358;28;105572;-60
2021/12/19 04:44:35;;;;;;;20.63;13.43;;;;;;;-1.44;100.00;97662.47;5008605;28;102147;-60
2021/12/19 04:58:14;;;;;;;21.33;13.00;;;;;;;-1.78;100.00;97653.59;5005517;28;102057;-60
2021/12/19 05:00:51;;;;;;;19.47;12.43;;;;;;;-1.70;100.00;97654.50;5009765;28;102893;-60
2021/12/19 05:03:29;;;;;;;19.80;12.43;;;;;;;-1.71;100.00;97663.31;5009473;28;103208;-59
2021/12/19 05:06:02;;;;;;;19.60;12.63;;;;;;;-1.69;100.00;97661.34;5009926;28;101682;-59
2021/12/19 05:16:44;;;;;;;20.73;12.57;;;;;;;-1.87;100.00;97639.63;5003393;28;105448;-60
2021/12/19 05:19:22;;;;;;;19.70;13.47;;;;;;;-1.98;100.00;97637.19;5009834;28;101718;-60
2021/12/19 05:21:51;;;;;;;20.83;12.73;;;;;;;-2.06;100.00;97639.72;5009758;28;102292;-60
2021/12/19 05:24:44;;;;;;;19.87;13.07;;;;;;;-2.04;100.00;97644.75;5008800;28;102576;-60
2021/12/19 05:27:12;;;;;;;19.90;11.73;;;;;;;-1.94;100.00;97645.56;5009274;28;101931;-60
2021/12/19 05:29:40;;;;;;;20.53;12.47;;;;;;;-1.88;100.00;97645.81;5009580;28;102336;-60
2021/12/19 05:32:09;;;;;;;19.83;12.80;;;;;;;-2.00;100.00;97635.69;5008309;28;103140;-60
2021/12/19 05:34:37;;;;;;;18.27;12.03;;;;;;;-2.22;100.00;97621.25;5009623;28;101828;-60
2021/12/19 05:45:20;;;;;;;19.90;12.40;;;;;;;-2.39;100.00;97608.94;5008784;28;102513;-60
2021/12/19 05:47:49;;;;;;;20.70;13.13;;;;;;;-2.38;100.00;97622.78;5009207;28;101689;-60
2021/12/19 05:50:17;;;;;;;20.53;12.70;;;;;;;-2.36;100.00;97624.28;5009416;28;102404;-60
2021/12/19 05:52:45;;;;;;;21.13;12.53;;;;;;;-2.23;100.00;97621.38;5008780;28;102467;-60
2021/12/19 05:55:19;;;;;;;20.17;12.83;;;;;;;-2.14;100.00;97623.94;5007606;28;101937;-59
2021/12/19 05:57:46;;;;;;;22.67;14.57;;;;;;;-2.18;100.00;97621.78;5009499;28;102333;-60
2021/12/19 06:00:16;;;;;;;22.83;14.33;;;;;;;-2.15;100.00;97616.25;5012187;28;102462;-60
2021/12/19 06:02:44;;;;;;;21.53;13.47;;;;;;;-2.11;100.00;97623.69;5008762;28;104018;-60
2021/12/19 06:05:13;;;;;;;21.03;13.90;;;;;;;-2.20;100.00;97624.53;5008766;28;102897;-60
2021/12/19 06:07:41;;;;;;;19.30;12.87;;;;;;;-2.19;100.00;97614.94;5008679;28;101895;-59
2021/12/19 06:10:09;;;;;;;20.13;12.87;;;;;;;-2.15;100.00;97613.66;5008675;28;102277;-60
2021/12/19 06:12:39;;;;;;;20.30;13.50;;;;;;;-2.24;100.00;97617.94;5007113;28;105704;-60
2021/12/19 06:15:08;;;;;;;16.40;11.37;;;;;;;-2.21;100.00;97607.25;5007409;28;101984;-60
2021/12/19 06:17:35;;;;;;;19.60;12.63;;;;;;;-2.17;100.00;97613.81;5008977;28;102400;-60
2021/12/19 06:20:02;;;;;;;18.80;11.97;;;;;;;-2.22;100.00;97608.22;5006905;28;105074;-60
2021/12/19 06:22:29;;;;;;;18.60;12.37;;;;;;;-2.27;100.00;97604.38;5010843;28;101804;-60
2021/12/19 06:24:56;;;;;;;19.70;12.20;;;;;;;-2.27;100.00;97613.03;5006724;28;105528;-60
2021/12/19 06:27:24;;;;;;;19.43;12.10;;;;;;;-2.12;100.00;97602.97;5010730;28;101970;-60
2021/12/19 06:29:53;;;;;;;19.40;11.87;;;;;;;-2.13;100.00;97611.75;5010444;28;106450;-60
2021/12/19 06:32:20;;;;;;;18.63;12.63;;;;;;;-2.26;100.00;97614.66;5010332;28;103837;-60
2021/12/19 06:34:50;;;;;;;19.37;13.17;;;;;;;-2.43;100.00;97627.59;5010383;28;102063;-60
2021/12/19 06:37:17;;;;;;;20.03;12.00;;;;;;;-2.37;100.00;97621.81;5010941;28;105302;-59
2021/12/19 06:39:43;;;;;;;19.50;11.60;;;;;;;-2.43;100.00;97623.22;5008074;28;105268;-60
2021/12/19 06:42:11;;;;;;;17.23;11.63;;;;;;;-2.41;100.00;97636.91;5010730;28;101950;-60
2021/12/19 06:44:39;;;;;;;19.23;11.30;;;;;;;-2.57;100.00;97635.84;5010939;28;105225;-59
2021/12/19 06:47:08;;;;;;;18.37;12.20;;;;;;;-2.41;100.00;97644.72;5009941;28;101977;-60
2021/12/19 06:49:35;;;;;;;20.27;11.43;;;;;;;-2.37;100.00;97635.66;5010362;28;105150;-60
2021/12/19 06:52:01;;;;;;;15.63;10.93;;;;;;;-2.42;100.00;97622.25;5010427;28;104419;-60
2021/12/19 06:57:55;;;;;;;19.00;11.80;;;;;;;-2.31;100.00;97621.25;5010749;28;103965;-60
2021/12/19 07:00:24;;;;;;;19.00;10.97;;;;;;;-2.31;100.00;97611.66;5011735;28;103176;-60
2021/12/19 07:02:54;;;;;;;18.07;11.90;;;;;;;-2.42;100.00;97605.78;5010679;28;101831;-60
2021/12/19 07:05:33;;;;;;;19.90;12.80;;;;;;;-2.55;100.00;97608.72;5012274;28;102649;-60
2021/12/19 07:07:59;;;;;;;22.87;13.17;;;;;;;-2.59;100.00;97616.91;5013323;28;101921;-60
2021/12/19 07:10:26;;;;;;;22.17;13.77;;;;;;;-2.67;100.00;97615.00;5008314;28;105437;-60
2021/12/19 07:12:53;;;;;;;21.93;13.90;;;;;;;-2.62;100.00;97612.00;5006243;28;104991;-59
2021/12/19 07:15:47;;;;;;;25.27;15.33;;;;;;;-2.59;100.00;97617.75;4990637;28;101948;-60
2021/12/19 07:18:17;;;;;;;23.53;14.17;;;;;;;-2.68;100.00;97607.38;4990417;28;103929;-60
2021/12/19 07:20:45;;;;;;;22.03;13.20;;;;;;;-2.62;100.00;97609.41;4989894;28;105433;-60
2021/12/19 07:23:12;;;;;;;20.27;13.17;;;;;;;-2.69;100.00;97603.94;4990387;28;101873;-59
2021/12/19 07:25:42;;;;;;;18.20;12.07;;;;;;;-2.52;100.00;97611.00;4990285;28;104745;-60
2021/12/19 07:28:37;;;;;;;22.40;13.67;;;;;;;-2.63;100.00;97598.16;4993148;28;105151;-59
2021/12/19 07:31:04;;;;;;;21.07;13.57;;;;;;;-2.49;100.00;97602.94;4989740;28;105480;-59
2021/12/19 07:33:33;;;;;;;21.67;13.80;;;;;;;-2.55;100.00;97611.31;4989629;28;105743;-60
2021/12/19 07:36:05;;;;;;;20.17;13.10;;;;;;;-2.50;100.00;97601.31;4990234;28;101852;-60
2021/12/19 07:38:36;;;;;;;20.50;13.33;;;;;;;-2.45;100.00;97596.50;4988999;28;103621;-59
2021/12/19 07:41:04;;;;;;;21.53;12.80;;;;;;;-2.38;100.00;97594.13;4989520;28;105506;-60
2021/12/19 07:43:31;;;;;;;25.33;16.27;;;;;;;-2.22;100.00;97579.56;4989589;28;102150;-60
2021/12/19 07:45:59;;;;;;;33.13;20.30;;;;;;;-2.28;100.00;97569.72;4989304;28;104819;-59
2021/12/19 07:48:26;;;;;;;24.13;14.33;;;;;;;-2.19;100.00;97566.22;4989147;28;105595;-59
2021/12/19 07:50:55;;;;;;;24.37;14.70;;;;;;;-2.21;100.00;97568.16;4992731;28;102030;-60
2021/12/19 07:53:22;;;;;;;25.83;14.97;;;;;;;-2.15;100.00;97565.00;4989963;28;102814;-60
2021/12/19 07:55:49;;;;;;;26.63;15.47;;;;;;;-2.18;100.00;97560.06;4989065;28;101804;-60
2021/12/19 07:58:16;;;;;;;21.60;14.30;;;;;;;-1.99;100.00;97564.34;4989077;28;105297;-60
2021/12/19 08:00:43;;;;;;;22.00;13.93;;;;;;;-2.02;100.00;97560.25;4988813;28;104991;-60
2021/12/19 08:03:10;;;;;;;23.10;14.40;;;;;;;-2.00;100.00;97553.13;4995359;28;101879;-60
2021/12/19 08:05:37;;;;;;;22.60;15.07;;;;;;;-1.94;100.00;97555.16;4989529;28;103743;-60
2021/12/19 08:08:06;;;;;;;22.20;14.00;;;;;;;-1.94;100.00;97552.56;4988669;28;105216;-60
2021/12/19 08:13:18;;;;;;;21.90;13.37;;;;;;;-1.58;100.00;97549.03;4992379;28;104763;-60
2021/12/19 08:15:45;;;;;;;20.73;13.00;;;;;;;-1.56;100.00;97536.69;4990693;28;101808;-60
2021/12/19 08:18:12;;;;;;;20.67;12.90;;;;;;;-1.43;100.00;97534.53;4989343;28;105153;-60
2021/12/19 08:20:38;;;;;;;20.13;13.70;;;;;;;-1.38;100.00;97527.06;4988690;28;106749;-60
2021/12/19 08:23:07;;;;;;;24.53;14.77;;;;;;;-1.23;100.00;97516.91;4989062;28;101957;-60
2021/12/19 08:25:34;;;;;;;19.30;12.43;;;;;;;-1.20;100.00;97512.22;4988845;28;103791;-60
2021/12/19 08:28:02;;;;;;;19.73;12.93;;;;;;;-1.20;100.00;97520.03;4988515;28;105401;-60
2021/12/19 08:30:29;;;;;;;21.87;13.17;;;;;;;-0.92;100.00;97510.31;4989926;28;101847;-60
2021/12/19 08:32:58;;;;;;;19.90;13.10;;;;;;;-0.97;100.00;97516.03;4988922;28;106621;-60
2021/12/19 08:35:25;;;;;;;19.77;13.57;;;;;;;-0.96;100.00;97525.47;5004375;28;102778;-60
2021/12/19 08:37:53;;;;;;;19.20;12.27;;;;;;;-0.98;100.00;97513.56;5008614;28;105723;-60
2021/12/19 08:40:23;;;;;;;16.53;11.10;;;;;;;-0.89;100.00;97505.63;5008353;28;105020;-60
2021/12/19 08:42:50;;;;;;;14.00;10.13;;;;;;;-0.83;100.00;97499.78;5009714;28;101793;-60
2021/12/19 08:45:17;;;;;;;16.40;11.10;;;;;;;-0.73;100.00;97490.06;5008795;28;105109;-60
2021/12/19 08:47:45;;;;;;;15.10;10.73;;;;;;;-0.52;100.00;97502.75;5008206;28;104302;-60
2021/12/19 08:50:12;;;;;;;17.03;11.50;;;;;;;-0.38;100.00;97494.34;5008363;28;101863;-60
2021/12/19 08:52:40;;;;;;;14.30;10.67;;;;;;;-0.27;100.00;97502.75;5008668;28;105124;-60
2021/12/19 08:55:09;;;;;;;12.77;9.73;;;;;;;-0.27;100.00;97507.97;5007987;28;105256;-60
2021/12/19 08:57:38;;;;;;;13.47;9.70;;;;;;;-0.13;100.00;97499.53;5012827;28;101940;-60
2021/12/19 09:00:07;;;;;;;13.53;9.77;;;;;;;-0.02;100.00;97494.00;5008865;28;105751;-60
2021/12/19 09:02:35;;;;;;;15.63;10.73;;;;;;;0.14;100.00;97494.06;5009493;28;101902;-60
2021/12/19 09:05:02;;;;;;;14.07;9.80;;;;;;;0.11;100.00;97489.16;5008478;28;104866;-60
2021/12/19 09:07:29;;;;;;;14.30;9.70;;;;;;;0.21;100.00;97490.66;5008703;28;105386;-60
2021/12/19 09:09:56;;;;;;;14.80;10.33;;;;;;;0.12;100.00;97494.22;5010396;28;101848;-59
2021/12/19 09:12:23;;;;;;;14.07;10.33;;;;;;;0.15;100.00;97482.63;5008384;28;105536;-60
2021/12/19 09:14:52;;;;;;;15.00;11.00;;;;;;;0.36;100.00;97480.38;5007138;28;105647;-60
2021/12/19 09:17:19;;;;;;;11.70;8.53;;;;;;;0.36;100.00;97478.59;5006121;28;101870;-59
2021/12/19 09:19:46;;;;;;;12.23;9.60;;;;;;;0.37;100.00;97479.41;4988514;28;105601;-59
2021/12/19 09:22:14;;;;;;;16.40;11.03;;;;;;;0.51;100.00;97484.81;5002039;28;102349;-60
2021/12/19 09:24:51;;;;;;;15.07;11.00;;;;;;;0.81;100.00;97468.50;5021577;28;104046;-59
2021/12/19 09:27:25;;;;;;;12.37;9.70;;;;;;;0.86;100.00;97462.75;4993322;28;104025;-59
2021/12/19 09:29:54;;;;;;;10.00;7.80;;;;;;;0.98;100.00;97453.59;5022804;28;102061;-60
2021/12/19 09:32:20;;;;;;;9.40;7.00;;;;;;;1.12;100.00;97453.75;4989194;28;105071;-60
2021/12/19 09:35:17;;;;;;;8.23;6.50;;;;;;;1.11;100.00;97451.31;4988734;28;105091;-60
2021/12/19 09:37:44;;;;;;;7.70;6.87;;;;;;;1.35;100.00;97444.22;4989322;28;101949;-60
2021/12/19 09:40:17;;;;;;;9.13;6.90;;;;;;;1.34;100.00;97434.72;4992140;28;105206;-60
2021/12/19 09:42:48;;;;;;;8.93;7.20;;;;;;;1.52;100.00;97430.06;5008884;28;101917;-59
2021/12/19 09:45:17;;;;;;;7.43;6.43;;;;;;;1.56;100.00;97425.31;5009287;28;105145;-59
2021/12/19 09:47:44;;;;;;;8.10;6.40;;;;;;;1.74;100.00;97420.63;5008572;28;105282;-59
2021/12/19 09:50:12;;;;;;;8.97;6.60;;;;;;;1.93;100.00;97417.63;5005303;28;101961;-58
2021/12/19 09:52:39;;;;;;;10.17;6.77;;;;;;;1.81;100.00;97409.31;4989023;28;105529;-59
2021/12/19 09:55:10;;;;;;;8.13;6.40;;;;;;;2.03;100.00;97407.72;4996260;28;105087;-59
2021/12/19 09:57:42;;;;;;;7.87;6.47;;;;;;;1.90;100.00;97405.66;5009169;28;101962;-60
2021/12/19 10:00:10;;;;;;;8.67;6.60;;;;;;;1.97;100.00;97398.72;5009596;28;102372;-60
2021/12/19 10:02:45;;;;;;;11.20;6.27;;;;;;;2.08;100.00;97395.72;5011996;28;105647;-60
2021/12/19 10:05:21;;;;;;;8.27;6.37;;;;;;;2.02;100.00;97399.03;5009019;28;105008;-60
2021/12/19 10:07:50;;;;;;;8.93;7.10;;;;;;;2.39;100.00;97399.13;5003218;28;105317;-60
2021/12/19 10:10:25;;;;;;;17.23;14.17;;;;;;;2.51;100.00;97395.09;4998492;28;103487;-60
2021/12/19 10:12:53;;;;;;;10.33;8.03;;;;;;;2.74;100.00;97392.47;5007602;28;105340;-60
2021/12/19 10:15:27;;;;;;;11.63;9.77;;;;;;;2.90;100.00;97376.56;5007789;28;105672;-60
2021/12/19 10:18:03;;;;;;;9.80;8.80;;;;;;;3.27;100.00;97369.41;5010029;28;101727;-60
2021/12/19 10:20:41;;;;;;;9.10;7.73;;;;;;;3.26;100.00;97362.53;5008291;28;105854;-60
2021/12/19 10:23:10;;;;;;;6.97;5.70;;;;;;;3.04;100.00;97352.91;5007467;28;105376;-60
2021/12/19 10:25:38;;;;;;;9.80;7.20;;;;;;;3.37;100.00;97348.94;5011519;28;101984;-60
2021/12/19 10:28:09;;;;;;;6.43;5.23;;;;;;;3.32;100.00;97343.41;5009275;28;101928;-60
2021/12/19 10:30:39;;;;;;;7.13;5.20;;;;;;;3.39;100.00;97338.25;5041859;27;101850;-60
2021/12/19 10:33:09;;;;;;;5.07;4.57;;;;;;;3.35;100.00;97334.34;5008099;28;103788;-60
2021/12/19 10:35:40;;;;;;;6.93;4.93;;;;;;;3.43;100.00;97335.06;5007500;28;105357;-60
2021/12/19 10:38:13;;;;;;;5.83;5.13;;;;;;;3.74;100.00;97329.56;5008432;28;102103;-60
2021/12/19 10:40:40;;;;;;;7.80;7.00;;;;;;;3.65;100.00;97325.44;5009335;28;102911;-60
2021/12/19 10:43:07;;;;;;;5.70;4.30;;;;;;;3.48;100.00;97326.59;5007936;28;103899;-60
2021/12/19 10:45:45;;;;;;;5.57;4.93;;;;;;;3.59;100.00;97318.25;5009519;28;101769;-60
2021/12/19 10:48:23;;;;;;;10.60;9.47;;;;;;;3.49;100.00;97315.13;5010928;28;105570;-60
2021/12/19 10:51:00;;;;;;;5.77;4.70;;;;;;;3.66;100.00;97311.28;5008078;28;102058;-60
2021/12/19 10:53:31;;;;;;;5.83;4.73;;;;;;;3.71;100.00;97303.66;5005029;28;105131;-60
2021/12/19 10:55:59;;;;;;;5.57;4.87;;;;;;;3.66;100.00;97303.38;5007101;28;105488;-60
2021/12/19 10:58:31;;;;;;;5.63;4.80;;;;;;;4.02;100.00;97280.47;5007959;28;101893;-60
2021/12/19 11:01:12;;;;;;;5.90;4.77;;;;;;;4.11;100.00;97274.09;5007852;28;105331;-60
2021/12/19 11:03:44;;;;;;;5.10;4.30;;;;;;;4.01;100.00;97274.41;5007438;28;105268;-60
2021/12/19 11:06:23;;;;;;;5.90;3.63;;;;;;;4.35;100.00;97268.44;5004176;28;102002;-60
2021/12/19 11:08:51;;;;;;;6.97;4.40;;;;;;;4.36;100.00;97267.44;5021365;28;104899;-60
2021/12/19 11:11:39;;;;;;;5.40;4.30;;;;;;;4.24;100.00;97266.31;4992245;28;105327;-60
2021/12/19 11:14:07;;;;;;;5.17;4.30;;;;;;;4.21;100.00;97250.91;5011222;28;105754;-60
2021/12/19 11:16:34;;;;;;;6.17;4.73;;;;;;;4.58;100.00;97238.22;5010591;28;103803;-60
2021/12/19 11:19:03;;;;;;;5.93;4.40;;;;;;;4.63;100.00;97242.94;5012448;28;101784;-60
2021/12/19 11:21:34;;;;;;;5.97;5.00;;;;;;;4.89;100.00;97227.25;5011172;28;105791;-60
2021/12/19 11:24:04;;;;;;;6.10;4.80;;;;;;;4.76;100.00;97228.00;5010564;28;105316;-60
2021/12/19 11:26:31;;;;;;;8.43;5.13;;;;;;;4.88;100.00;97220.38;5003960;28;102259;-60
2021/12/19 11:29:00;;;;;;;6.30;5.00;;;;;;;4.96;100.00;97213.13;4990613;28;105682;-60
2021/12/19 11:31:31;;;;;;;5.47;4.77;;;;;;;5.34;100.00;97201.13;4993247;28;105382;-60
2021/12/19 11:34:20;;;;;;;5.17;4.47;;;;;;;5.28;100.00;97203.72;4990929;28;104805;-60
2021/12/19 11:36:52;;;;;;;6.27;5.17;;;;;;;4.99;100.00;97201.38;4990156;28;105145;-60
2021/12/19 11:39:20;;;;;;;42.37;19.17;;;;;;;5.23;100.00;97199.03;5006065;28;102235;-60
2021/12/19 11:42:07;;;;;;;10.23;7.00;;;;;;;5.24;100.00;97190.13;5011012;28;102431;-60
2021/12/19 11:44:38;;;;;;;29.47;14.83;;;;;;;5.48;100.00;97180.88;5009907;28;105434;-60
2021/12/19 11:47:10;;;;;;;29.30;13.60;;;;;;;5.65;100.00;97171.56;5009697;28;101780;-60
2021/12/19 11:49:39;;;;;;;11.50;8.47;;;;;;;5.62;100.00;97171.97;5009520;28;104948;-60
2021/12/19 11:52:27;;;;;;;9.20;7.30;;;;;;;5.80;100.00;97164.31;5009813;28;105393;-60
2021/12/19 11:55:22;;;;;;;5.37;4.13;;;;;;;5.85;100.00;97154.75;5013874;28;101817;-60
2021/12/19 11:58:22;;;;;;;6.23;5.03;;;;;;;5.92;100.00;97152.13;5009814;28;104006;-60
2021/12/19 12:00:54;;;;;;;8.07;6.00;;;;;;;5.92;100.00;97146.84;5006807;28;101878;-60
2021/12/19 12:03:29;;;;;;;6.07;4.30;;;;;;;5.93;100.00;97135.28;5010145;28;104948;-60
2021/12/19 12:06:24;;;;;;;6.47;5.23;;;;;;;6.01;100.00;97130.59;5009500;28;105671;-60
2021/12/19 12:09:16;;;;;;;4.97;4.30;;;;;;;6.17;100.00;97124.91;5010524;28;101917;-60
2021/12/19 12:12:08;;;;;;;4.80;4.37;;;;;;;6.26;100.00;97122.84;5010553;28;104949;-60
2021/12/19 12:14:41;;;;;;;6.13;5.03;;;;;;;6.47;100.00;97120.81;5009773;28;105354;-60
2021/12/19 12:17:14;;;;;;;11.50;5.00;;;;;;;6.83;100.00;97122.94;5010104;28;102177;-60
2021/12/19 12:19:44;;;;;;;9.40;6.03;;;;;;;6.43;100.00;97109.03;5014320;28;102512;-60